createdAt,value
2018-06-18T00:01:34.053Z,3.97
2018-06-18T00:04:02.598Z,3.60
2018-06-18T00:06:30.810Z,3.70
2018-06-18T00:09:00.057Z,3.07
2018-06-18T00:11:28.360Z,4.00
2018-06-18T00:13:56.614Z,3.90
2018-06-18T00:16:28.853Z,4.03
2018-06-18T00:18:57.655Z,3.60
2018-06-18T00:21:27.378Z,3.80
2018-06-18T00:23:55.608Z,3.43
2018-06-18T00:26:23.885Z,4.30
2018-06-18T00:28:52.086Z,3.40
2018-06-18T00:31:20.276Z,3.33
2018-06-18T00:33:50.178Z,3.53
2018-06-18T00:36:20.689Z,2.80
2018-06-18T00:38:51.921Z,3.27
2018-06-18T00:41:20.132Z,3.10
2018-06-18T00:43:48.385Z,3.30
2018-06-18T00:46:16.577Z,3.27
2018-06-18T00:48:44.785Z,3.43
2018-06-18T00:51:14.418Z,3.50
2018-06-18T00:53:43.546Z,3.10
2018-06-18T00:56:15.295Z,3.00
2018-06-18T00:58:43.761Z,3.47
2018-06-18T01:01:12.453Z,3.50
2018-06-18T01:03:40.685Z,3.30
2018-06-18T01:06:09.121Z,3.03
2018-06-18T01:08:37.314Z,3.13
2018-06-18T01:11:06.276Z,2.90
2018-06-18T01:13:35.068Z,3.20
2018-06-18T01:16:03.298Z,2.77
2018-06-18T01:18:31.524Z,3.40
2018-06-18T01:21:00.448Z,2.40
2018-06-18T01:23:53.777Z,2.90
2018-06-18T01:26:22.498Z,4.17
2018-06-18T01:28:51.278Z,2.73
2018-06-18T01:31:19.753Z,2.30
2018-06-18T01:33:48.482Z,2.67
2018-06-18T01:36:16.674Z,2.77
2018-06-18T01:38:45.821Z,2.40
2018-06-18T01:41:14.514Z,2.37
2018-06-18T01:43:42.733Z,2.90
2018-06-18T01:46:10.929Z,2.53
2018-06-18T01:48:40.162Z,2.83
2018-06-18T01:51:10.334Z,3.00
2018-06-18T01:53:38.517Z,2.53
2018-06-18T01:56:07.715Z,2.30
2018-06-18T01:58:35.917Z,2.70
2018-06-18T02:01:04.506Z,2.47
2018-06-18T02:03:32.689Z,2.80
2018-06-18T02:06:00.889Z,2.67
2018-06-18T02:08:29.105Z,2.53
2018-06-18T02:10:57.321Z,2.80
2018-06-18T02:13:27.040Z,2.03
2018-06-18T02:15:56.273Z,2.23
2018-06-18T02:18:24.503Z,2.27
2018-06-18T02:20:54.622Z,2.50
2018-06-18T02:23:22.834Z,2.60
2018-06-18T02:25:51.009Z,2.30
2018-06-18T02:28:24.609Z,3.03
2018-06-18T02:30:58.282Z,2.60
2018-06-18T02:33:33.209Z,2.47
2018-06-18T02:36:07.676Z,2.77
2018-06-18T02:38:41.078Z,2.20
2018-06-18T02:41:09.312Z,2.30
2018-06-18T02:43:37.557Z,2.57
2018-06-18T02:46:05.723Z,2.77
2018-06-18T02:48:34.723Z,3.07
2018-06-18T02:51:03.650Z,2.50
2018-06-18T02:53:31.853Z,2.67
2018-06-18T02:56:00.494Z,2.37
2018-06-18T02:58:28.735Z,3.00
2018-06-18T03:00:57.254Z,2.40
2018-06-18T03:03:26.390Z,2.73
2018-06-18T03:05:54.662Z,2.53
2018-06-18T03:08:22.885Z,2.20
2018-06-18T03:10:51.290Z,3.00
2018-06-18T03:13:19.518Z,2.50
2018-06-18T03:15:47.695Z,2.50
2018-06-18T03:19:19.832Z,2.83
2018-06-18T03:21:54.286Z,1.80
2018-06-18T03:24:28.122Z,2.40
2018-06-18T03:27:01.790Z,2.70
2018-06-18T03:29:31.878Z,2.27
2018-06-18T03:32:02.119Z,2.53
2018-06-18T03:34:30.357Z,2.87
2018-06-18T03:37:00.445Z,2.77
2018-06-18T03:39:28.678Z,2.47
2018-06-18T03:41:57.130Z,2.67
2018-06-18T03:45:33.569Z,2.63
2018-06-18T03:48:11.322Z,2.33
2018-06-18T03:50:39.753Z,2.90
2018-06-18T03:53:09.086Z,3.37
2018-06-18T03:55:57.661Z,3.40
2018-06-18T03:58:25.917Z,2.90
2018-06-18T04:02:05.329Z,2.73
2018-06-18T04:04:45.798Z,2.97
2018-06-18T04:07:21.039Z,2.90
2018-06-18T04:09:54.785Z,3.07
2018-06-18T04:12:23.376Z,3.00
2018-06-18T04:14:51.626Z,2.90
2018-06-18T04:17:20.167Z,2.80
2018-06-18T04:19:48.742Z,2.73
2018-06-18T04:22:17.157Z,2.50
2018-06-18T04:24:46.768Z,2.70
2018-06-18T04:27:15.577Z,2.57
2018-06-18T04:29:43.802Z,2.30
2018-06-18T04:32:12.833Z,2.40
2018-06-18T04:34:48.217Z,2.70
2018-06-18T04:37:17.445Z,3.40
2018-06-18T04:39:45.702Z,2.57
2018-06-18T04:42:19.398Z,2.27
2018-06-18T04:44:53.694Z,2.70
2018-06-18T04:47:27.453Z,2.90
2018-06-18T04:50:01.241Z,2.37
2018-06-18T04:52:29.495Z,3.50
2018-06-18T04:54:57.728Z,2.60
2018-06-18T04:57:26.359Z,2.70
2018-06-18T05:00:06.200Z,2.93
2018-06-18T05:02:34.777Z,2.90
2018-06-18T05:05:03.033Z,2.60
2018-06-18T05:07:32.398Z,2.53
2018-06-18T05:10:09.647Z,2.43
2018-06-18T05:12:37.927Z,1.80
2018-06-18T05:15:06.164Z,2.43
2018-06-18T05:17:35.065Z,1.70
2018-06-18T05:20:04.062Z,2.40
2018-06-18T05:22:32.230Z,2.50
2018-06-18T05:25:00.481Z,2.40
2018-06-18T05:27:31.624Z,2.63
2018-06-18T05:30:18.809Z,2.20
2018-06-18T05:32:47.542Z,2.27
2018-06-18T05:35:15.765Z,3.00
2018-06-18T05:38:22.469Z,2.73
2018-06-18T05:40:50.686Z,2.43
2018-06-18T05:43:18.912Z,2.23
2018-06-18T05:45:47.777Z,2.60
2018-06-18T05:48:16.485Z,2.70
2018-06-18T05:50:45.081Z,2.20
2018-06-18T05:53:13.277Z,2.90
2018-06-18T05:55:41.494Z,2.73
2018-06-18T05:58:09.746Z,3.07
2018-06-18T06:00:37.952Z,2.60
2018-06-18T06:03:06.633Z,3.10
2018-06-18T06:05:34.875Z,3.10
2018-06-18T06:08:03.570Z,3.17
2018-06-18T06:10:31.790Z,3.30
2018-06-18T06:13:00.369Z,3.70
2018-06-18T06:15:28.558Z,3.07
2018-06-18T06:17:56.740Z,2.80
2018-06-18T06:20:25.465Z,3.20
2018-06-18T06:22:54.291Z,3.47
2018-06-18T06:25:22.494Z,2.80
2018-06-18T06:27:50.750Z,3.50
2018-06-18T06:30:19.260Z,3.20
2018-06-18T06:32:48.421Z,2.90
2018-06-18T06:35:20.197Z,3.03
2018-06-18T06:37:48.908Z,3.20
2018-06-18T06:40:17.877Z,3.20
2018-06-18T06:42:46.086Z,3.50
2018-06-18T06:45:14.366Z,3.23
2018-06-18T06:47:42.284Z,2.70
2018-06-18T06:50:10.511Z,3.20
2018-06-18T06:52:38.747Z,2.87
2018-06-18T06:55:07.038Z,2.30
2018-06-18T06:57:35.904Z,2.87
2018-06-18T07:00:04.254Z,2.90
2018-06-18T07:02:33.010Z,2.70
2018-06-18T07:05:01.591Z,2.27
2018-06-18T07:07:29.782Z,2.90
2018-06-18T07:09:58.016Z,2.30
2018-06-18T07:12:26.233Z,2.87
2018-06-18T07:14:54.781Z,2.47
2018-06-18T07:17:23.301Z,2.17
2018-06-18T07:19:51.501Z,2.20
2018-06-18T07:22:19.762Z,2.60
2018-06-18T07:24:48.074Z,2.43
2018-06-18T07:27:16.290Z,2.73
2018-06-18T07:29:45.751Z,2.63
2018-06-18T07:32:13.949Z,2.20
2018-06-18T07:34:43.943Z,2.67
2018-06-18T07:37:12.126Z,2.30
2018-06-18T07:39:41.094Z,2.07
2018-06-18T07:42:09.331Z,2.00
2018-06-18T07:44:37.968Z,2.27
2018-06-18T07:47:06.165Z,2.00
2018-06-18T07:49:35.072Z,2.20
2018-06-18T07:52:03.291Z,2.20
2018-06-18T07:54:32.130Z,2.23
2018-06-18T07:57:01.372Z,1.80
2018-06-18T07:59:29.605Z,1.80
2018-06-18T08:01:57.818Z,2.17
2018-06-18T08:04:26.363Z,2.10
2018-06-18T08:06:54.598Z,1.97
2018-06-18T08:09:23.714Z,1.87
2018-06-18T08:11:51.914Z,2.03
2018-06-18T08:14:20.126Z,1.83
2018-06-18T08:16:48.633Z,1.70
2018-06-18T08:19:16.863Z,1.63
2018-06-18T08:21:45.366Z,2.80
2018-06-18T08:24:13.565Z,1.70
2018-06-18T08:26:42.246Z,1.97
2018-06-18T08:29:10.453Z,1.60
2018-06-18T08:31:38.696Z,1.70
2018-06-18T08:34:07.250Z,2.00
2018-06-18T08:36:35.426Z,1.83
2018-06-18T08:39:06.614Z,1.73
2018-06-18T08:41:34.874Z,1.70
2018-06-18T08:44:04.010Z,1.63
2018-06-18T08:46:32.287Z,1.77
2018-06-18T08:49:06.030Z,1.30
2018-06-18T08:51:39.686Z,1.10
2018-06-18T08:54:14.129Z,1.37
2018-06-18T08:56:47.753Z,1.20
2018-06-18T08:59:21.310Z,2.63
2018-06-18T09:01:50.110Z,1.57
2018-06-18T09:05:21.269Z,1.87
2018-06-18T09:07:58.681Z,1.63
2018-06-18T09:10:26.990Z,1.57
2018-06-18T09:12:55.709Z,1.30
2018-06-18T09:15:24.715Z,1.33
2018-06-18T09:17:52.865Z,1.53
2018-06-18T09:20:21.407Z,1.23
2018-06-18T09:22:49.582Z,1.10
2018-06-18T09:25:17.794Z,1.00
2018-06-18T09:27:46.010Z,1.20
2018-06-18T09:30:14.190Z,1.40
2018-06-18T09:32:42.480Z,1.00
2018-06-18T09:35:10.814Z,1.47
2018-06-18T09:37:39.022Z,1.33
2018-06-18T09:40:07.234Z,1.83
2018-06-18T09:42:36.453Z,1.30
2018-06-18T09:45:05.413Z,1.33
2018-06-18T09:47:34.621Z,1.30
2018-06-18T09:51:08.845Z,1.13
2018-06-18T09:53:42.474Z,1.50
2018-06-18T09:56:16.123Z,1.27
2018-06-18T09:58:49.802Z,1.10
2018-06-18T10:01:24.359Z,1.47
2018-06-18T10:03:53.285Z,1.13
2018-06-18T10:06:23.716Z,1.20
2018-06-18T10:08:51.975Z,1.40
2018-06-18T10:11:20.245Z,1.30
2018-06-18T10:13:49.514Z,1.40
2018-06-18T10:16:17.770Z,2.13
2018-06-18T10:18:45.961Z,1.50
2018-06-18T10:21:14.189Z,1.30
2018-06-18T10:23:42.626Z,2.00
2018-06-18T10:26:10.882Z,1.70
2018-06-18T10:28:39.062Z,1.20
2018-06-18T10:31:07.233Z,1.63
2018-06-18T10:33:40.978Z,1.50
2018-06-18T10:36:14.695Z,2.00
2018-06-18T10:38:48.331Z,1.63
2018-06-18T10:41:22.840Z,1.57
2018-06-18T10:43:51.045Z,1.50
2018-06-18T10:46:19.241Z,1.47
2018-06-18T10:48:47.445Z,1.60
2018-06-18T10:51:15.640Z,1.43
2018-06-18T10:53:43.830Z,1.77
2018-06-18T10:56:11.990Z,1.60
2018-06-18T10:58:40.713Z,1.70
2018-06-18T11:01:10.965Z,1.90
2018-06-18T11:03:39.435Z,2.03
2018-06-18T11:06:12.963Z,1.57
2018-06-18T11:08:41.188Z,1.60
2018-06-18T11:11:10.658Z,1.60
2018-06-18T11:13:38.893Z,1.70
2018-06-18T11:16:07.196Z,1.70
2018-06-18T11:18:40.646Z,1.90
2018-06-18T11:21:14.399Z,1.80
2018-06-18T11:23:49.006Z,1.43
2018-06-18T11:26:23.025Z,1.97
2018-06-18T11:28:51.149Z,1.80
2018-06-18T11:31:19.453Z,2.30
2018-06-18T11:33:48.181Z,1.30
2018-06-18T11:36:16.406Z,1.87
2018-06-18T11:38:44.628Z,1.73
2018-06-18T11:41:13.484Z,1.90
2018-06-18T11:43:43.247Z,1.50
2018-06-18T11:46:12.027Z,1.60
2018-06-18T11:48:40.286Z,1.80
2018-06-18T11:51:09.130Z,1.63
2018-06-18T11:53:37.554Z,1.60
2018-06-18T11:56:05.751Z,2.07
2018-06-18T11:58:39.687Z,2.07
2018-06-18T12:01:13.609Z,1.87
2018-06-18T12:03:47.226Z,1.70
2018-06-18T12:06:20.820Z,2.00
2018-06-18T12:08:54.524Z,1.63
2018-06-18T12:11:22.734Z,1.80
2018-06-18T12:13:51.765Z,2.20
2018-06-18T12:16:20.361Z,1.73
2018-06-18T12:18:48.553Z,1.70
2018-06-18T12:21:17.253Z,1.60
2018-06-18T12:23:45.517Z,1.37
2018-06-18T12:26:13.777Z,1.30
2018-06-18T12:28:42.029Z,1.40
2018-06-18T12:31:10.197Z,1.47
2018-06-18T12:33:38.672Z,1.40
2018-06-18T12:36:09.588Z,1.40
2018-06-18T12:38:37.836Z,1.63
2018-06-18T12:41:06.024Z,2.00
2018-06-18T12:43:37.526Z,1.40
2018-06-18T12:46:11.870Z,1.40
2018-06-18T12:48:45.552Z,1.63
2018-06-18T12:51:19.125Z,1.87
2018-06-18T12:53:52.833Z,2.13
2018-06-18T12:56:57.225Z,1.67
2018-06-18T12:59:25.390Z,1.63
2018-06-18T13:01:58.003Z,2.00
2018-06-18T13:04:26.334Z,1.40
2018-06-18T13:06:55.077Z,1.53
2018-06-18T13:09:23.877Z,1.63
2018-06-18T13:11:52.114Z,1.60
2018-06-18T13:14:20.342Z,1.60
2018-06-18T13:16:48.508Z,1.57
2018-06-18T13:19:17.020Z,1.77
2018-06-18T13:21:45.203Z,1.73
2018-06-18T13:24:13.451Z,1.73
2018-06-18T13:26:42.538Z,1.80
2018-06-18T13:29:11.726Z,1.70
2018-06-18T13:31:40.215Z,1.60
2018-06-18T13:34:08.414Z,1.60
2018-06-18T13:36:36.666Z,1.57
2018-06-18T13:39:12.926Z,1.70
2018-06-18T13:41:46.644Z,1.50
2018-06-18T13:44:20.390Z,1.60
2018-06-18T13:46:54.943Z,1.70
2018-06-18T13:49:26.638Z,2.13
2018-06-18T13:51:54.903Z,1.60
2018-06-18T13:54:23.109Z,1.67
2018-06-18T13:56:51.282Z,1.60
2018-06-18T13:59:24.280Z,1.70
2018-06-18T14:01:53.381Z,2.00
2018-06-18T14:04:21.609Z,2.80
2018-06-18T14:06:51.345Z,1.70
2018-06-18T14:09:19.978Z,1.97
2018-06-18T14:11:49.025Z,2.00
2018-06-18T14:14:17.201Z,1.70
2018-06-18T14:16:46.104Z,1.67
2018-06-18T14:19:19.649Z,1.93
2018-06-18T14:21:47.862Z,1.93
2018-06-18T14:24:16.728Z,1.80
2018-06-18T14:26:44.957Z,2.33
2018-06-18T14:29:18.514Z,2.10
2018-06-18T14:31:53.217Z,1.87
2018-06-18T14:34:27.005Z,1.97
2018-06-18T14:37:01.010Z,1.87
2018-06-18T14:39:34.672Z,1.70
2018-06-18T14:42:03.836Z,1.97
2018-06-18T14:44:32.005Z,1.73
2018-06-18T14:47:00.226Z,2.07
2018-06-18T14:49:29.825Z,1.53
2018-06-18T14:51:58.310Z,2.00
2018-06-18T14:54:26.799Z,2.23
2018-06-18T14:56:57.079Z,1.87
2018-06-18T14:59:29.891Z,2.00
2018-06-18T15:01:58.786Z,2.03
2018-06-18T15:04:26.946Z,2.00
2018-06-18T15:06:55.153Z,2.10
2018-06-18T15:09:24.015Z,1.93
2018-06-18T15:11:52.109Z,1.93
2018-06-18T15:14:20.665Z,1.97
2018-06-18T15:16:48.897Z,1.63
2018-06-18T15:19:17.164Z,2.93
2018-06-18T15:21:50.218Z,1.70
2018-06-18T15:24:26.223Z,2.10
2018-06-18T15:26:58.359Z,1.97
2018-06-18T15:29:26.528Z,1.90
2018-06-18T15:31:54.798Z,1.90
2018-06-18T15:34:23.314Z,1.50
2018-06-18T15:36:52.121Z,2.20
2018-06-18T15:39:21.312Z,2.30
2018-06-18T15:41:49.930Z,1.83
2018-06-18T15:44:19.121Z,2.50
2018-06-18T15:46:47.306Z,1.80
2018-06-18T15:49:15.513Z,1.80
2018-06-18T15:51:44.037Z,2.20
2018-06-18T15:54:15.191Z,1.97
2018-06-18T15:56:44.328Z,1.93
2018-06-18T15:59:12.469Z,2.43
2018-06-18T16:01:40.806Z,2.20
2018-06-18T16:04:08.917Z,2.33
2018-06-18T16:09:11.905Z,2.23
2018-06-18T16:11:40.876Z,2.37
2018-06-18T16:14:09.951Z,2.30
2018-06-18T16:16:38.548Z,2.07
2018-06-18T16:19:06.754Z,1.67
2018-06-18T16:21:35.581Z,2.33
2018-06-18T16:24:04.225Z,2.30
2018-06-18T16:26:32.460Z,1.93
2018-06-18T16:29:00.646Z,2.00
2018-06-18T16:31:28.881Z,2.17
2018-06-18T16:33:57.093Z,2.10
2018-06-18T16:36:26.706Z,2.53
2018-06-18T16:38:54.929Z,2.10
2018-06-18T16:41:23.568Z,2.40
2018-06-18T16:43:51.963Z,2.20
2018-06-18T16:46:21.077Z,2.40
2018-06-18T16:48:50.304Z,1.80
2018-06-18T16:51:18.553Z,1.97
2018-06-18T16:53:46.890Z,1.83
2018-06-18T16:56:15.187Z,2.40
2018-06-18T16:58:44.543Z,1.70
2018-06-18T17:01:13.369Z,1.90
2018-06-18T17:03:41.641Z,2.30
2018-06-18T17:06:09.937Z,2.27
2018-06-18T17:08:39.177Z,2.03
2018-06-18T17:11:07.702Z,1.80
2018-06-18T17:13:36.504Z,1.80
2018-06-18T17:16:05.357Z,2.27
2018-06-18T17:18:33.721Z,1.90
2018-06-18T17:21:03.093Z,2.30
2018-06-18T17:23:31.464Z,2.47
2018-06-18T17:25:59.918Z,2.10
2018-06-18T17:28:28.178Z,2.10
2018-06-18T17:30:57.621Z,2.30
2018-06-18T17:33:25.931Z,1.90
2018-06-18T17:35:55.328Z,2.00
2018-06-18T17:38:25.762Z,2.07
2018-06-18T17:40:54.041Z,2.10
2018-06-18T17:43:22.927Z,2.50
2018-06-18T17:45:52.045Z,2.10
2018-06-18T17:48:21.061Z,1.70
2018-06-18T17:50:49.158Z,2.93
2018-06-18T17:53:17.334Z,1.87
2018-06-18T17:55:46.471Z,1.77
2018-06-18T17:58:14.655Z,2.20
2018-06-18T18:00:42.869Z,1.63
2018-06-18T18:03:11.133Z,1.90
2018-06-18T18:05:39.332Z,1.83
2018-06-18T18:08:07.605Z,2.03
2018-06-18T18:10:35.815Z,1.80
2018-06-18T18:13:04.103Z,2.10
2018-06-18T18:15:32.370Z,2.10
2018-06-18T18:18:00.749Z,2.23
2018-06-18T18:20:29.650Z,2.20
2018-06-18T18:22:58.347Z,2.40
2018-06-18T18:25:27.134Z,1.80
2018-06-18T18:27:55.825Z,1.60
2018-06-18T18:30:24.408Z,1.63
2018-06-18T18:32:52.645Z,1.60
2018-06-18T18:35:20.905Z,1.63
2018-06-18T18:37:51.954Z,2.30
2018-06-18T18:40:20.185Z,2.10
2018-06-18T18:42:49.419Z,2.40
2018-06-18T18:45:18.782Z,2.30
2018-06-18T18:47:47.013Z,1.70
2018-06-18T18:50:15.237Z,2.33
2018-06-18T18:52:43.454Z,2.10
2018-06-18T18:55:32.246Z,2.07
2018-06-18T18:58:13.201Z,2.13
2018-06-18T19:00:41.769Z,2.10
2018-06-18T19:03:12.094Z,2.30
2018-06-18T19:05:41.126Z,2.40
2018-06-18T19:08:11.274Z,2.23
2018-06-18T19:10:41.417Z,2.17
2018-06-18T19:13:13.157Z,2.30
2018-06-18T19:15:41.374Z,2.23
2018-06-18T19:18:10.249Z,1.80
2018-06-18T19:20:42.990Z,2.33
2018-06-18T19:23:11.237Z,2.50
2018-06-18T19:25:39.479Z,2.37
2018-06-18T19:28:08.065Z,2.40
2018-06-18T19:30:38.120Z,2.97
2018-06-18T19:33:13.214Z,2.70
2018-06-18T19:35:41.418Z,2.47
2018-06-18T19:38:09.605Z,2.47
2018-06-18T19:40:38.025Z,2.23
2018-06-18T19:43:06.947Z,2.50
2018-06-18T19:45:38.057Z,2.47
2018-06-18T19:48:13.048Z,2.17
2018-06-18T19:50:42.464Z,3.27
2018-06-18T19:53:10.693Z,2.63
2018-06-18T19:55:38.930Z,3.23
2018-06-18T19:58:07.115Z,3.10
2018-06-18T20:00:42.121Z,2.93
2018-06-18T20:03:10.801Z,3.93
2018-06-18T20:05:39.090Z,3.90
2018-06-18T20:08:10.478Z,2.80
2018-06-18T20:10:38.681Z,2.77
2018-06-18T20:13:06.959Z,3.60
2018-06-18T20:15:35.160Z,2.60
2018-06-18T20:18:03.402Z,3.00
2018-06-18T20:20:31.608Z,2.90
2018-06-18T20:23:00.414Z,2.80
2018-06-18T20:25:35.286Z,3.30
2018-06-18T20:28:04.919Z,2.83
2018-06-18T20:30:33.114Z,3.20
2018-06-18T20:33:01.298Z,3.33
2018-06-18T20:35:33.512Z,3.40
2018-06-18T20:38:01.738Z,2.90
2018-06-18T20:40:30.429Z,3.07
2018-06-18T20:42:59.381Z,2.90
2018-06-18T20:45:28.650Z,3.47
2018-06-18T20:47:56.870Z,3.60
2018-06-18T20:50:25.120Z,3.23
2018-06-18T20:52:53.277Z,3.63
2018-06-18T20:55:21.509Z,3.40
2018-06-18T20:57:49.736Z,3.50
2018-06-18T21:00:18.822Z,3.07
2018-06-18T21:02:47.062Z,3.50
2018-06-18T21:05:16.767Z,3.67
2018-06-18T21:07:45.004Z,3.60
2018-06-18T21:10:13.209Z,4.47
2018-06-18T21:12:42.091Z,3.43
2018-06-18T21:15:10.333Z,3.93
2018-06-18T21:17:38.507Z,3.20
2018-06-18T21:20:06.730Z,3.60
2018-06-18T21:22:35.450Z,3.80
2018-06-18T21:25:04.199Z,3.70
2018-06-18T21:27:32.385Z,4.07
2018-06-18T21:30:00.637Z,3.70
2018-06-18T21:32:29.513Z,4.00
2018-06-18T21:34:57.796Z,3.27
2018-06-18T21:37:26.301Z,3.23
2018-06-18T21:39:54.896Z,3.47
2018-06-18T21:42:23.141Z,3.20
2018-06-18T21:44:56.977Z,3.57
2018-06-18T21:47:25.158Z,3.47
2018-06-18T21:49:53.702Z,3.60
2018-06-18T21:52:22.066Z,3.30
2018-06-18T21:54:50.843Z,4.00
2018-06-18T21:57:18.975Z,3.10
2018-06-18T21:59:47.181Z,3.23
2018-06-18T22:02:15.358Z,3.67
2018-06-18T22:04:44.221Z,3.57
2018-06-18T22:07:12.904Z,3.50
2018-06-18T22:09:41.325Z,4.40
2018-06-18T22:12:09.946Z,3.93
2018-06-18T22:14:38.755Z,3.97
2018-06-18T22:17:07.625Z,3.40
2018-06-18T22:19:36.525Z,3.50
2018-06-18T22:22:04.770Z,3.40
2018-06-18T22:24:33.295Z,3.53
2018-06-18T22:27:01.474Z,3.77
2018-06-18T22:29:29.649Z,3.30
2018-06-18T22:31:57.928Z,3.87
2018-06-18T22:34:26.182Z,4.70
2018-06-18T22:36:54.437Z,3.73
2018-06-18T22:39:23.635Z,3.53
2018-06-18T22:41:53.587Z,3.60
2018-06-18T22:44:21.810Z,4.27
2018-06-18T22:46:51.461Z,4.27
2018-06-18T22:49:20.366Z,3.63
2018-06-18T22:51:48.550Z,3.53
2018-06-18T22:54:16.785Z,3.90
2018-06-18T22:56:45.051Z,4.70
2018-06-18T22:59:13.826Z,3.70
2018-06-18T23:01:42.021Z,3.93
2018-06-18T23:04:11.093Z,4.70
2018-06-18T23:06:39.317Z,3.73
2018-06-18T23:09:09.805Z,3.97
2018-06-18T23:11:38.195Z,3.60
2018-06-18T23:14:09.954Z,4.67
2018-06-18T23:16:38.205Z,4.00
2018-06-18T23:19:06.388Z,4.20
2018-06-18T23:21:34.638Z,4.27
2018-06-18T23:24:04.079Z,4.00
2018-06-18T23:26:32.331Z,3.73
2018-06-18T23:29:03.635Z,3.77
2018-06-18T23:31:31.889Z,3.77
2018-06-18T23:34:00.486Z,3.80
2018-06-18T23:36:29.001Z,3.60
2018-06-18T23:38:57.493Z,4.20
2018-06-18T23:41:27.253Z,4.03
2018-06-18T23:43:55.466Z,4.30
2018-06-18T23:46:23.757Z,4.17
2018-06-18T23:48:52.353Z,3.97
2018-06-18T23:51:20.606Z,4.30
2018-06-18T23:53:48.789Z,3.73
2018-06-18T23:56:17.917Z,4.60
2018-06-18T23:58:46.519Z,4.00
